UAE9836 OMDW-VHHH
Flight info
| Callsign | UAE9836 |
|---|---|
| Flight time | N/A |
| Altitude | 33000 |
| Route | NOLSU M572 GOMTA M428 MUNGA A777 VAXIM L301 RASKI L639 BPL A791 IBUDA/N0497F350 A791 CEA B465 CTG A599 LINSO/K0913S1070 A599 POU R473 SIERA |
| Aircraft | B77L/H-SDE1E2E3FGHIJ2J3J4J5M1RWXY/LB1D1 |
Departure
| Time | 2026-05-06 12:09 |
|---|---|
| Airport | Al Maktoum International Airport (OMDW) |
Arrival
| Time | N/A |
|---|---|
| Airport | Hong Kong International Airport (VHHH) |
| Time | Latitude | Longitude | Altitude | Speed | Heading |
|---|---|---|---|---|---|
| 2026-05-06 12:08 | 24.88649 | 55.17940 | 162 ft | 16 kts | 301° |
| 2026-05-06 12:08 | 24.88808 | 55.17652 | 162 ft | 74 kts | 300° |
| 2026-05-06 12:08 | 24.89171 | 55.16995 | 161 ft | 125 kts | 301° |
| 2026-05-06 12:08 | 24.89704 | 55.16033 | 163 ft | 167 kts | 301° |
| 2026-05-06 12:09 | 24.90336 | 55.14887 | 400 ft | 179 kts | 303° |
| 2026-05-06 12:09 | 24.90972 | 55.13697 | 695 ft | 180 kts | 303° |
| 2026-05-06 12:09 | 24.91609 | 55.12484 | 1050 ft | 186 kts | 301° |
| 2026-05-06 12:09 | 24.92318 | 55.11257 | 1480 ft | 195 kts | 300° |
| 2026-05-06 12:10 | 24.93083 | 55.10009 | 1954 ft | 203 kts | 300° |
| 2026-05-06 12:10 | 24.93857 | 55.08622 | 2141 ft | 220 kts | 298° |
| 2026-05-06 12:10 | 24.94656 | 55.07126 | 2483 ft | 233 kts | 297° |
| 2026-05-06 12:10 | 24.95409 | 55.05524 | 2873 ft | 236 kts | 284° |
| 2026-05-06 12:11 | 24.95466 | 55.03759 | 3309 ft | 233 kts | 250° |
| 2026-05-06 12:11 | 24.94624 | 55.02271 | 3836 ft | 232 kts | 223° |
| 2026-05-06 12:11 | 24.93281 | 55.01148 | 4092 ft | 253 kts | 210° |
| 2026-05-06 12:11 | 24.91677 | 55.00287 | 4464 ft | 263 kts | 190° |
| 2026-05-06 12:12 | 24.89858 | 55.00360 | 5044 ft | 266 kts | 162° |
| 2026-05-06 12:12 | 24.88236 | 55.01338 | 5733 ft | 272 kts | 139° |
| 2026-05-06 12:12 | 24.87048 | 55.02968 | 6466 ft | 274 kts | 123° |
| 2026-05-06 12:12 | 24.86239 | 55.04859 | 7051 ft | 279 kts | 101° |
| 2026-05-06 12:13 | 24.86410 | 55.06982 | 7680 ft | 283 kts | 75° |
| 2026-05-06 12:13 | 24.87059 | 55.09039 | 8261 ft | 287 kts | 73° |
| 2026-05-06 12:13 | 24.87674 | 55.11114 | 9019 ft | 286 kts | 73° |
| 2026-05-06 12:13 | 24.88330 | 55.13185 | 9734 ft | 287 kts | 76° |
| 2026-05-06 12:14 | 24.88835 | 55.15338 | 10274 ft | 296 kts | 78° |
| 2026-05-06 12:14 | 24.89305 | 55.17641 | 10443 ft | 320 kts | 79° |
| 2026-05-06 12:14 | 24.89816 | 55.20082 | 10599 ft | 343 kts | 78° |
| 2026-05-06 12:14 | 24.90384 | 55.22721 | 10785 ft | 364 kts | 78° |
| 2026-05-06 12:15 | 24.90980 | 55.25469 | 11284 ft | 374 kts | 77° |
| 2026-05-06 12:15 | 24.91590 | 55.28287 | 11863 ft | 381 kts | 77° |
| 2026-05-06 12:15 | 24.92207 | 55.31142 | 12552 ft | 385 kts | 77° |
| 2026-05-06 12:15 | 24.92810 | 55.34037 | 13192 ft | 390 kts | 78° |
| 2026-05-06 12:16 | 24.93402 | 55.36987 | 13707 ft | 398 kts | 77° |
| 2026-05-06 12:16 | 24.94051 | 55.39973 | 14291 ft | 402 kts | 76° |
| 2026-05-06 12:16 | 24.94713 | 55.42973 | 14942 ft | 404 kts | 76° |
| 2026-05-06 12:16 | 24.95375 | 55.45999 | 15564 ft | 407 kts | 76° |
| 2026-05-06 12:17 | 24.95948 | 55.49042 | 16056 ft | 407 kts | 85° |
| 2026-05-06 12:17 | 24.95695 | 55.52171 | 16418 ft | 415 kts | 105° |
| 2026-05-06 12:17 | 24.94859 | 55.55220 | 16997 ft | 416 kts | 107° |
| 2026-05-06 12:17 | 24.94033 | 55.58288 | 17573 ft | 420 kts | 106° |
| 2026-05-06 12:18 | 24.93210 | 55.61392 | 18097 ft | 425 kts | 106° |
| 2026-05-06 12:18 | 24.92387 | 55.64495 | 18550 ft | 430 kts | 106° |
| 2026-05-06 12:18 | 24.91527 | 55.67719 | 18987 ft | 435 kts | 106° |
| 2026-05-06 12:18 | 24.90678 | 55.70885 | 19427 ft | 439 kts | 106° |
| 2026-05-06 12:19 | 24.89803 | 55.74139 | 19867 ft | 444 kts | 106° |
| 2026-05-06 12:19 | 24.88916 | 55.77429 | 20256 ft | 450 kts | 107° |
| 2026-05-06 12:19 | 24.88021 | 55.80743 | 20733 ft | 453 kts | 106° |
| 2026-05-06 12:19 | 24.87120 | 55.84081 | 21180 ft | 458 kts | 106° |
| 2026-05-06 12:20 | 24.86207 | 55.87461 | 21600 ft | 462 kts | 107° |
| 2026-05-06 12:20 | 24.85289 | 55.90853 | 22132 ft | 463 kts | 107° |
| 2026-05-06 12:20 | 24.84365 | 55.94268 | 22613 ft | 467 kts | 107° |
| 2026-05-06 12:20 | 24.83432 | 55.97711 | 23001 ft | 471 kts | 107° |
| 2026-05-06 12:21 | 24.82491 | 56.01179 | 23384 ft | 476 kts | 107° |
| 2026-05-06 12:21 | 24.81539 | 56.04686 | 23705 ft | 479 kts | 107° |
| 2026-05-06 12:21 | 24.80582 | 56.08209 | 24062 ft | 483 kts | 107° |
| 2026-05-06 12:21 | 24.79616 | 56.11763 | 24400 ft | 486 kts | 107° |
| 2026-05-06 12:22 | 24.78642 | 56.15338 | 24739 ft | 489 kts | 107° |
| 2026-05-06 12:22 | 24.77663 | 56.18928 | 25069 ft | 492 kts | 107° |
| 2026-05-06 12:22 | 24.76677 | 56.22543 | 25363 ft | 496 kts | 107° |
| 2026-05-06 12:22 | 24.75681 | 56.26190 | 25696 ft | 499 kts | 107° |
| 2026-05-06 12:23 | 24.74678 | 56.29858 | 26021 ft | 502 kts | 107° |
| 2026-05-06 12:23 | 24.73670 | 56.33540 | 26323 ft | 505 kts | 107° |
| 2026-05-06 12:23 | 24.72656 | 56.37248 | 26613 ft | 508 kts | 107° |
| 2026-05-06 12:23 | 24.71632 | 56.40981 | 26964 ft | 510 kts | 107° |
| 2026-05-06 12:24 | 24.70604 | 56.44722 | 27225 ft | 513 kts | 107° |
| 2026-05-06 12:24 | 24.69567 | 56.48493 | 27577 ft | 516 kts | 107° |
| 2026-05-06 12:24 | 24.68524 | 56.52279 | 27841 ft | 519 kts | 108° |
| 2026-05-06 12:24 | 24.67471 | 56.56094 | 28121 ft | 522 kts | 108° |
| 2026-05-06 12:25 | 24.66413 | 56.59931 | 28397 ft | 525 kts | 108° |
| 2026-05-06 12:25 | 24.65349 | 56.63782 | 28647 ft | 529 kts | 108° |
| 2026-05-06 12:25 | 24.64276 | 56.67663 | 28905 ft | 531 kts | 108° |
| 2026-05-06 12:25 | 24.63212 | 56.71509 | 29162 ft | 534 kts | 108° |
| 2026-05-06 12:26 | 24.62128 | 56.75425 | 29392 ft | 536 kts | 108° |
| 2026-05-06 12:26 | 24.61040 | 56.79348 | 29647 ft | 538 kts | 108° |
| 2026-05-06 12:26 | 24.59946 | 56.83289 | 29949 ft | 539 kts | 108° |
| 2026-05-06 12:26 | 24.58854 | 56.87219 | 30256 ft | 538 kts | 108° |
| 2026-05-06 12:27 | 24.57760 | 56.91154 | 30662 ft | 535 kts | 108° |
| 2026-05-06 12:27 | 24.56670 | 56.95065 | 31001 ft | 535 kts | 108° |
| 2026-05-06 12:27 | 24.55580 | 56.98976 | 31292 ft | 535 kts | 108° |
| 2026-05-06 12:27 | 24.54487 | 57.02891 | 31572 ft | 536 kts | 108° |
| 2026-05-06 12:28 | 24.53395 | 57.06796 | 31874 ft | 535 kts | 108° |
| 2026-05-06 12:28 | 24.52301 | 57.10708 | 32186 ft | 535 kts | 108° |
| 2026-05-06 12:28 | 24.51208 | 57.14611 | 32487 ft | 535 kts | 108° |
| 2026-05-06 12:28 | 24.50112 | 57.18518 | 32721 ft | 537 kts | 108° |
| 2026-05-06 12:29 | 24.47902 | 57.26386 | 32805 ft | 539 kts | 108° |
| 2026-05-06 12:29 | 24.45711 | 57.34174 | 32790 ft | 534 kts | 108° |
| 2026-05-06 12:30 | 24.43516 | 57.41955 | 32773 ft | 533 kts | 108° |
| 2026-05-06 12:30 | 24.41321 | 57.49723 | 32786 ft | 533 kts | 108° |
| 2026-05-06 12:31 | 24.39120 | 57.57494 | 32789 ft | 534 kts | 108° |
| 2026-05-06 12:31 | 24.36911 | 57.65277 | 32785 ft | 535 kts | 108° |
| 2026-05-06 12:32 | 24.34692 | 57.73072 | 32788 ft | 536 kts | 108° |
| 2026-05-06 12:32 | 24.32462 | 57.80889 | 32771 ft | 537 kts | 108° |
| 2026-05-06 12:33 | 24.30227 | 57.88708 | 32781 ft | 538 kts | 108° |
| 2026-05-06 12:33 | 24.27989 | 57.96525 | 32778 ft | 537 kts | 108° |
| 2026-05-06 12:34 | 24.25744 | 58.04347 | 32771 ft | 537 kts | 108° |
| 2026-05-06 12:34 | 24.23500 | 58.12151 | 32783 ft | 537 kts | 108° |
| 2026-05-06 12:35 | 24.21254 | 58.19945 | 32782 ft | 536 kts | 108° |
| 2026-05-06 12:35 | 24.19004 | 58.27737 | 32781 ft | 536 kts | 108° |
| 2026-05-06 12:36 | 24.16766 | 58.35471 | 32782 ft | 536 kts | 108° |
| 2026-05-06 12:36 | 24.14513 | 58.43241 | 32781 ft | 535 kts | 108° |
| 2026-05-06 12:37 | 24.12260 | 58.50996 | 32784 ft | 534 kts | 108° |
| 2026-05-06 12:37 | 24.10002 | 58.58751 | 32782 ft | 534 kts | 108° |
| 2026-05-06 12:38 | 24.07741 | 58.66501 | 32785 ft | 534 kts | 108° |
| 2026-05-06 12:38 | 24.05477 | 58.74236 | 32787 ft | 534 kts | 108° |
| 2026-05-06 12:39 | 24.03206 | 58.81980 | 32788 ft | 534 kts | 108° |
| 2026-05-06 12:39 | 24.00942 | 58.89690 | 32789 ft | 534 kts | 108° |
| 2026-05-06 12:40 | 23.98667 | 58.97423 | 32782 ft | 534 kts | 108° |
| 2026-05-06 12:40 | 23.96390 | 59.05145 | 32783 ft | 533 kts | 108° |
| 2026-05-06 12:41 | 23.94111 | 59.12861 | 32783 ft | 533 kts | 108° |
| 2026-05-06 12:41 | 23.91828 | 59.20571 | 32788 ft | 533 kts | 108° |
| 2026-05-06 12:42 | 23.89542 | 59.28278 | 32785 ft | 533 kts | 108° |
| 2026-05-06 12:42 | 23.87250 | 59.35990 | 32792 ft | 533 kts | 108° |
| 2026-05-06 12:43 | 23.84959 | 59.43686 | 32785 ft | 533 kts | 108° |
| 2026-05-06 12:43 | 23.82659 | 59.51386 | 32791 ft | 533 kts | 108° |
| 2026-05-06 12:44 | 23.80369 | 59.59036 | 32794 ft | 533 kts | 108° |
| 2026-05-06 12:44 | 23.78064 | 59.66725 | 32796 ft | 533 kts | 108° |
| 2026-05-06 12:45 | 23.75756 | 59.74412 | 32791 ft | 533 kts | 108° |
| 2026-05-06 12:46 | 23.72285 | 59.85942 | 32794 ft | 533 kts | 108° |
| 2026-05-06 12:46 | 23.69968 | 59.93622 | 32789 ft | 533 kts | 108° |
| 2026-05-06 12:47 | 23.67645 | 60.01303 | 32784 ft | 533 kts | 108° |
| 2026-05-06 12:47 | 23.65317 | 60.08986 | 32793 ft | 533 kts | 108° |
| 2026-05-06 12:48 | 23.62991 | 60.16647 | 32797 ft | 533 kts | 108° |
| 2026-05-06 12:48 | 23.60658 | 60.24316 | 32794 ft | 533 kts | 108° |
| 2026-05-06 12:49 | 23.58321 | 60.31986 | 32799 ft | 533 kts | 108° |
| 2026-05-06 12:49 | 23.55979 | 60.39653 | 32799 ft | 533 kts | 108° |
| 2026-05-06 12:50 | 23.53633 | 60.47321 | 32801 ft | 533 kts | 108° |
| 2026-05-06 12:50 | 23.51680 | 60.53693 | 32784 ft | 533 kts | 108° |
| 2026-05-06 12:51 | 23.48941 | 60.62611 | 32802 ft | 533 kts | 108° |
| 2026-05-06 12:51 | 23.46967 | 60.69026 | 32801 ft | 533 kts | 108° |
| 2026-05-06 12:52 | 23.44609 | 60.76676 | 32803 ft | 533 kts | 108° |
| 2026-05-06 12:52 | 23.42249 | 60.84317 | 32803 ft | 533 kts | 108° |
| 2026-05-06 12:53 | 23.39893 | 60.91931 | 32808 ft | 533 kts | 108° |
| 2026-05-06 12:53 | 23.37522 | 60.99579 | 32804 ft | 533 kts | 108° |
| 2026-05-06 12:54 | 23.35147 | 61.07227 | 32793 ft | 533 kts | 108° |
| 2026-05-06 12:54 | 23.32778 | 61.14883 | 32805 ft | 533 kts | 106° |
| 2026-05-06 12:55 | 23.31186 | 61.22728 | 32800 ft | 531 kts | 95° |
| 2026-05-06 12:55 | 23.30525 | 61.30723 | 32809 ft | 531 kts | 94° |
| 2026-05-06 12:56 | 23.29876 | 61.38719 | 32813 ft | 531 kts | 94° |
| 2026-05-06 12:56 | 23.29181 | 61.46718 | 32811 ft | 531 kts | 94° |
| 2026-05-06 12:57 | 23.28460 | 61.54718 | 32809 ft | 532 kts | 94° |
| 2026-05-06 12:57 | 23.27732 | 61.62721 | 32807 ft | 532 kts | 94° |
| 2026-05-06 12:58 | 23.27002 | 61.70725 | 32812 ft | 532 kts | 94° |
| 2026-05-06 12:58 | 23.26270 | 61.78729 | 32812 ft | 532 kts | 94° |
| 2026-05-06 12:59 | 23.25534 | 61.86734 | 32810 ft | 532 kts | 94° |
| 2026-05-06 12:59 | 23.24799 | 61.94685 | 32812 ft | 532 kts | 94° |
| 2026-05-06 13:00 | 23.24053 | 62.02702 | 32812 ft | 531 kts | 94° |
| 2026-05-06 13:00 | 23.23305 | 62.10693 | 32817 ft | 531 kts | 94° |
| 2026-05-06 13:01 | 23.22555 | 62.18674 | 32816 ft | 531 kts | 94° |
| 2026-05-06 13:01 | 23.21801 | 62.26651 | 32814 ft | 530 kts | 94° |
| 2026-05-06 13:02 | 23.21042 | 62.34627 | 32811 ft | 530 kts | 94° |
| 2026-05-06 13:02 | 23.20279 | 62.42607 | 32814 ft | 530 kts | 94° |
| 2026-05-06 13:03 | 23.19515 | 62.50567 | 32816 ft | 530 kts | 94° |
| 2026-05-06 13:03 | 23.18744 | 62.58538 | 32815 ft | 530 kts | 94° |
| 2026-05-06 13:04 | 23.17970 | 62.66513 | 32815 ft | 531 kts | 94° |
| 2026-05-06 13:04 | 23.17195 | 62.74447 | 32818 ft | 531 kts | 95° |
| 2026-05-06 13:05 | 23.16411 | 62.82437 | 32814 ft | 531 kts | 95° |
| 2026-05-06 13:05 | 23.15622 | 62.90432 | 32811 ft | 532 kts | 95° |
| 2026-05-06 13:06 | 23.14828 | 62.98431 | 32807 ft | 532 kts | 95° |
| 2026-05-06 13:06 | 23.14031 | 63.06424 | 32815 ft | 531 kts | 95° |
| 2026-05-06 13:07 | 23.13232 | 63.14398 | 32817 ft | 531 kts | 95° |
| 2026-05-06 13:07 | 23.12429 | 63.22368 | 32811 ft | 531 kts | 95° |
| 2026-05-06 13:08 | 23.11621 | 63.30350 | 32815 ft | 530 kts | 95° |
| 2026-05-06 13:08 | 23.10816 | 63.38259 | 32816 ft | 530 kts | 95° |
| 2026-05-06 13:09 | 23.10002 | 63.46220 | 32815 ft | 530 kts | 95° |
| 2026-05-06 13:09 | 23.09183 | 63.54190 | 32814 ft | 530 kts | 95° |
| 2026-05-06 13:10 | 23.08360 | 63.62160 | 32811 ft | 530 kts | 95° |
| 2026-05-06 13:10 | 23.07534 | 63.70111 | 32810 ft | 530 kts | 95° |
| 2026-05-06 13:11 | 23.06703 | 63.78081 | 32809 ft | 531 kts | 95° |
| 2026-05-06 13:11 | 23.05869 | 63.86045 | 32815 ft | 531 kts | 95° |
| 2026-05-06 13:12 | 23.05056 | 63.93962 | 32815 ft | 531 kts | 94° |
| 2026-05-06 13:12 | 23.04254 | 64.01945 | 32813 ft | 531 kts | 94° |
| 2026-05-06 13:13 | 23.03450 | 64.09916 | 32815 ft | 532 kts | 94° |
| 2026-05-06 13:13 | 23.02633 | 64.17918 | 32810 ft | 532 kts | 94° |
| 2026-05-06 13:14 | 23.01812 | 64.25908 | 32811 ft | 533 kts | 95° |
| 2026-05-06 13:14 | 23.00987 | 64.33901 | 32813 ft | 533 kts | 95° |
| 2026-05-06 13:15 | 23.00158 | 64.41895 | 32813 ft | 533 kts | 95° |
| 2026-05-06 13:15 | 22.99325 | 64.49894 | 32813 ft | 533 kts | 95° |
| 2026-05-06 13:16 | 22.98486 | 64.57904 | 32819 ft | 534 kts | 95° |
| 2026-05-06 13:16 | 22.97645 | 64.65897 | 32815 ft | 534 kts | 95° |
| 2026-05-06 13:17 | 22.96798 | 64.73906 | 32810 ft | 534 kts | 95° |
| 2026-05-06 13:17 | 22.95959 | 64.81850 | 32810 ft | 533 kts | 94° |
| 2026-05-06 13:18 | 22.95734 | 64.89860 | 32815 ft | 530 kts | 87° |
| 2026-05-06 13:18 | 22.95841 | 64.97862 | 32816 ft | 531 kts | 87° |
| 2026-05-06 13:19 | 22.95931 | 65.05868 | 32812 ft | 531 kts | 87° |
| 2026-05-06 13:19 | 22.95981 | 65.13878 | 32810 ft | 531 kts | 87° |
| 2026-05-06 13:20 | 22.96014 | 65.21896 | 32806 ft | 530 kts | 87° |
| 2026-05-06 13:20 | 22.96042 | 65.29894 | 32821 ft | 530 kts | 88° |
| 2026-05-06 13:21 | 22.96069 | 65.37877 | 32814 ft | 530 kts | 87° |
| 2026-05-06 13:21 | 22.96093 | 65.45867 | 32813 ft | 529 kts | 87° |
| 2026-05-06 13:22 | 22.96114 | 65.53863 | 32810 ft | 529 kts | 88° |
| 2026-05-06 13:22 | 22.96130 | 65.61848 | 32814 ft | 529 kts | 88° |
| 2026-05-06 13:23 | 22.96142 | 65.69837 | 32812 ft | 530 kts | 88° |
| 2026-05-06 13:23 | 22.96150 | 65.77830 | 32813 ft | 530 kts | 88° |
| 2026-05-06 13:24 | 22.96154 | 65.85828 | 32810 ft | 530 kts | 88° |
| 2026-05-06 13:24 | 22.96154 | 65.93829 | 32816 ft | 530 kts | 88° |
| 2026-05-06 13:25 | 22.96150 | 66.01835 | 32807 ft | 531 kts | 88° |
| 2026-05-06 13:25 | 22.96142 | 66.09799 | 32812 ft | 531 kts | 88° |
| 2026-05-06 13:26 | 22.96130 | 66.17803 | 32811 ft | 531 kts | 88° |
| 2026-05-06 13:26 | 22.96114 | 66.25826 | 32817 ft | 531 kts | 88° |
| 2026-05-06 13:27 | 22.96094 | 66.33844 | 32811 ft | 532 kts | 88° |
| 2026-05-06 13:27 | 22.96070 | 66.41867 | 32806 ft | 532 kts | 88° |
| 2026-05-06 13:28 | 22.96042 | 66.49901 | 32804 ft | 532 kts | 88° |
| 2026-05-06 13:28 | 22.96009 | 66.57926 | 32814 ft | 532 kts | 88° |
| 2026-05-06 13:29 | 22.95973 | 66.65911 | 32806 ft | 533 kts | 88° |
| 2026-05-06 13:29 | 22.95933 | 66.73958 | 32812 ft | 533 kts | 88° |
| 2026-05-06 13:30 | 22.95889 | 66.81999 | 32806 ft | 533 kts | 88° |
| 2026-05-06 13:30 | 22.95840 | 66.90054 | 32822 ft | 533 kts | 88° |
| 2026-05-06 13:31 | 22.95792 | 66.98098 | 32808 ft | 534 kts | 87° |
| 2026-05-06 13:31 | 22.95802 | 67.06157 | 32794 ft | 534 kts | 87° |
| 2026-05-06 13:32 | 22.95834 | 67.14223 | 32799 ft | 534 kts | 87° |
| 2026-05-06 13:32 | 22.95853 | 67.22275 | 32805 ft | 533 kts | 87° |
| 2026-05-06 13:33 | 22.95862 | 67.30324 | 32803 ft | 534 kts | 87° |
| 2026-05-06 13:33 | 22.95864 | 67.38320 | 32805 ft | 533 kts | 87° |
| 2026-05-06 13:34 | 22.95863 | 67.46423 | 32803 ft | 533 kts | 87° |
| 2026-05-06 13:34 | 22.95859 | 67.54473 | 32814 ft | 534 kts | 87° |
| 2026-05-06 13:35 | 22.95851 | 67.62528 | 32805 ft | 534 kts | 87° |
| 2026-05-06 13:35 | 22.95838 | 67.70537 | 32804 ft | 534 kts | 87° |
| 2026-05-06 13:36 | 22.95822 | 67.78657 | 32797 ft | 535 kts | 87° |
| 2026-05-06 13:36 | 22.95802 | 67.86672 | 32802 ft | 535 kts | 87° |
| 2026-05-06 13:37 | 22.95799 | 67.94753 | 32798 ft | 535 kts | 87° |
| 2026-05-06 13:37 | 22.95813 | 68.02823 | 32800 ft | 535 kts | 87° |
| 2026-05-06 13:38 | 22.95820 | 68.10884 | 32796 ft | 535 kts | 87° |
| 2026-05-06 13:38 | 22.95819 | 68.17647 | 32796 ft | 535 kts | 87° |
| 2026-05-06 13:39 | 22.95814 | 68.25718 | 32791 ft | 535 kts | 87° |
| 2026-05-06 13:39 | 22.95806 | 68.33746 | 32795 ft | 535 kts | 87° |
| 2026-05-06 13:40 | 22.95567 | 68.43192 | 32801 ft | 537 kts | 91° |
| 2026-05-06 13:40 | 22.95160 | 68.49913 | 32791 ft | 537 kts | 91° |
| 2026-05-06 13:41 | 22.94645 | 68.58008 | 32797 ft | 538 kts | 91° |
| 2026-05-06 13:41 | 22.94154 | 68.66115 | 32801 ft | 538 kts | 91° |
| 2026-05-06 13:42 | 22.93676 | 68.74220 | 32796 ft | 539 kts | 91° |
| 2026-05-06 13:42 | 22.93197 | 68.82330 | 32796 ft | 539 kts | 91° |
| 2026-05-06 13:43 | 22.92711 | 68.90445 | 32792 ft | 539 kts | 91° |
| 2026-05-06 13:43 | 22.92219 | 68.98561 | 32797 ft | 539 kts | 91° |
| 2026-05-06 13:44 | 22.91724 | 69.06660 | 32790 ft | 538 kts | 91° |
| 2026-05-06 13:44 | 22.91224 | 69.14766 | 32787 ft | 538 kts | 91° |
| 2026-05-06 13:45 | 22.90722 | 69.22857 | 32794 ft | 538 kts | 91° |
| 2026-05-06 13:45 | 22.89960 | 69.35001 | 32790 ft | 538 kts | 91° |
| 2026-05-06 13:46 | 22.89447 | 69.43099 | 32793 ft | 538 kts | 91° |
| 2026-05-06 13:46 | 22.88929 | 69.51203 | 32788 ft | 539 kts | 91° |
| 2026-05-06 13:47 | 22.88407 | 69.59316 | 32796 ft | 540 kts | 91° |
| 2026-05-06 13:47 | 22.87879 | 69.67453 | 32783 ft | 541 kts | 91° |
| 2026-05-06 13:48 | 22.87368 | 69.75584 | 32788 ft | 541 kts | 91° |
| 2026-05-06 13:48 | 22.86901 | 69.83742 | 32776 ft | 542 kts | 90° |
| 2026-05-06 13:49 | 22.86438 | 69.91846 | 32785 ft | 543 kts | 90° |
| 2026-05-06 13:49 | 22.85959 | 70.00018 | 32779 ft | 544 kts | 90° |
| 2026-05-06 13:50 | 22.85471 | 70.08202 | 32772 ft | 544 kts | 91° |
| 2026-05-06 13:50 | 22.84978 | 70.16400 | 32778 ft | 544 kts | 91° |
| 2026-05-06 13:51 | 22.84481 | 70.24593 | 32779 ft | 545 kts | 91° |
| 2026-05-06 13:51 | 22.83979 | 70.32795 | 32780 ft | 545 kts | 91° |
| 2026-05-06 13:52 | 22.83476 | 70.40955 | 32774 ft | 546 kts | 91° |
| 2026-05-06 13:52 | 22.82966 | 70.49165 | 32752 ft | 546 kts | 91° |
| 2026-05-06 13:53 | 22.82450 | 70.57402 | 32778 ft | 544 kts | 91° |
| 2026-05-06 13:53 | 22.81936 | 70.65537 | 32774 ft | 544 kts | 91° |
| 2026-05-06 13:54 | 22.81416 | 70.73707 | 32773 ft | 543 kts | 91° |
| 2026-05-06 13:54 | 22.81005 | 70.81874 | 32765 ft | 540 kts | 86° |
| 2026-05-06 13:55 | 22.81670 | 70.89927 | 32774 ft | 534 kts | 76° |
| 2026-05-06 13:55 | 22.82944 | 70.97886 | 32769 ft | 536 kts | 76° |
| 2026-05-06 13:56 | 22.84193 | 71.05865 | 32760 ft | 538 kts | 76° |
| 2026-05-06 13:56 | 22.85401 | 71.13875 | 32758 ft | 539 kts | 77° |
| 2026-05-06 13:57 | 22.86591 | 71.21895 | 32750 ft | 540 kts | 77° |
| 2026-05-06 13:57 | 22.87781 | 71.29944 | 32745 ft | 540 kts | 77° |
| 2026-05-06 13:58 | 22.88970 | 71.37990 | 32745 ft | 540 kts | 77° |
| 2026-05-06 13:58 | 22.90149 | 71.45989 | 32744 ft | 540 kts | 77° |
| 2026-05-06 13:59 | 22.91330 | 71.54029 | 32745 ft | 540 kts | 77° |
| 2026-05-06 13:59 | 22.92507 | 71.62068 | 32740 ft | 540 kts | 77° |
| 2026-05-06 14:00 | 22.93680 | 71.70111 | 32742 ft | 540 kts | 77° |
| 2026-05-06 14:00 | 22.94849 | 71.78159 | 32741 ft | 540 kts | 77° |
| 2026-05-06 14:01 | 22.96014 | 71.86211 | 32738 ft | 540 kts | 77° |
| 2026-05-06 14:01 | 22.97178 | 71.94280 | 32734 ft | 541 kts | 77° |
| 2026-05-06 14:02 | 22.98338 | 72.02357 | 32736 ft | 541 kts | 77° |
| 2026-05-06 14:02 | 22.99494 | 72.10432 | 32733 ft | 542 kts | 77° |
| 2026-05-06 14:03 | 23.00648 | 72.18521 | 32731 ft | 542 kts | 77° |
| 2026-05-06 14:03 | 23.01790 | 72.26560 | 32738 ft | 542 kts | 77° |
| 2026-05-06 14:04 | 23.02935 | 72.34650 | 32727 ft | 543 kts | 77° |
| 2026-05-06 14:04 | 23.04078 | 72.42750 | 32724 ft | 543 kts | 77° |
| 2026-05-06 14:05 | 23.05217 | 72.50862 | 32725 ft | 543 kts | 77° |
| 2026-05-06 14:05 | 23.06353 | 72.58978 | 32726 ft | 543 kts | 77° |
| 2026-05-06 14:06 | 23.07235 | 72.67140 | 32719 ft | 547 kts | 82° |
| 2026-05-06 14:06 | 23.07669 | 72.75396 | 32724 ft | 547 kts | 83° |
| 2026-05-06 14:07 | 23.08076 | 72.83651 | 32719 ft | 547 kts | 83° |
| 2026-05-06 14:07 | 23.08513 | 72.91905 | 32745 ft | 547 kts | 83° |
| 2026-05-06 14:08 | 23.08964 | 73.00105 | 32736 ft | 548 kts | 83° |
| 2026-05-06 14:08 | 23.09417 | 73.08379 | 32736 ft | 548 kts | 83° |
| 2026-05-06 14:09 | 23.09863 | 73.16650 | 32743 ft | 549 kts | 83° |
| 2026-05-06 14:09 | 23.10303 | 73.24924 | 32756 ft | 549 kts | 83° |
| 2026-05-06 14:10 | 23.10738 | 73.33206 | 32757 ft | 550 kts | 83° |
| 2026-05-06 14:10 | 23.11171 | 73.41501 | 32755 ft | 550 kts | 83° |
| 2026-05-06 14:11 | 23.11597 | 73.49758 | 32757 ft | 551 kts | 83° |
| 2026-05-06 14:11 | 23.12021 | 73.58069 | 32762 ft | 551 kts | 83° |
| 2026-05-06 14:12 | 23.12441 | 73.66377 | 32772 ft | 551 kts | 83° |
| 2026-05-06 14:12 | 23.12858 | 73.74708 | 32767 ft | 552 kts | 83° |
| 2026-05-06 14:13 | 23.13270 | 73.83041 | 32775 ft | 552 kts | 83° |
| 2026-05-06 14:13 | 23.13676 | 73.91354 | 32773 ft | 552 kts | 83° |
| 2026-05-06 14:14 | 23.14079 | 73.99675 | 32785 ft | 551 kts | 83° |
| 2026-05-06 14:14 | 23.14479 | 74.08005 | 32791 ft | 552 kts | 83° |
| 2026-05-06 14:15 | 23.14873 | 74.16337 | 32795 ft | 552 kts | 83° |
| 2026-05-06 14:15 | 23.15263 | 74.24660 | 32806 ft | 552 kts | 84° |
| 2026-05-06 14:16 | 23.15649 | 74.32985 | 32809 ft | 552 kts | 84° |
| 2026-05-06 14:16 | 23.15928 | 74.41268 | 32818 ft | 553 kts | 85° |
| 2026-05-06 14:17 | 23.16065 | 74.49627 | 32810 ft | 553 kts | 86° |
| 2026-05-06 14:17 | 23.16199 | 74.57999 | 32820 ft | 554 kts | 86° |
| 2026-05-06 14:18 | 23.16355 | 74.66372 | 32828 ft | 554 kts | 85° |
| 2026-05-06 14:18 | 23.16519 | 74.74746 | 32826 ft | 554 kts | 85° |
| 2026-05-06 14:19 | 23.16679 | 74.83109 | 32836 ft | 554 kts | 86° |
| 2026-05-06 14:19 | 23.16831 | 74.91463 | 32836 ft | 553 kts | 86° |
| 2026-05-06 14:20 | 23.16978 | 74.99834 | 32836 ft | 553 kts | 86° |
| 2026-05-06 14:20 | 23.17121 | 75.08208 | 32850 ft | 554 kts | 86° |
| 2026-05-06 14:21 | 23.17259 | 75.16518 | 32838 ft | 554 kts | 86° |
| 2026-05-06 14:21 | 23.17394 | 75.24940 | 32844 ft | 554 kts | 86° |
| 2026-05-06 14:22 | 23.17523 | 75.33270 | 32843 ft | 554 kts | 86° |
| 2026-05-06 14:22 | 23.17648 | 75.41624 | 32843 ft | 553 kts | 86° |
| 2026-05-06 14:23 | 23.17770 | 75.49999 | 32844 ft | 554 kts | 86° |
| 2026-05-06 14:23 | 23.17867 | 75.56959 | 32846 ft | 554 kts | 86° |
| 2026-05-06 14:24 | 23.17980 | 75.65339 | 32839 ft | 555 kts | 86° |
| 2026-05-06 14:24 | 23.18089 | 75.73732 | 32838 ft | 555 kts | 86° |
| 2026-05-06 14:25 | 23.18193 | 75.82113 | 32847 ft | 555 kts | 87° |
| 2026-05-06 14:25 | 23.18293 | 75.90510 | 32842 ft | 556 kts | 87° |
| 2026-05-06 14:26 | 23.18392 | 75.98916 | 32840 ft | 556 kts | 86° |
| 2026-05-06 14:26 | 23.18894 | 76.07291 | 32842 ft | 554 kts | 82° |
| 2026-05-06 14:27 | 23.19587 | 76.15634 | 32854 ft | 554 kts | 82° |
| 2026-05-06 14:27 | 23.20268 | 76.23996 | 32841 ft | 555 kts | 83° |
| 2026-05-06 14:28 | 23.20909 | 76.32291 | 32842 ft | 555 kts | 83° |
| 2026-05-06 14:28 | 23.21539 | 76.40650 | 32838 ft | 555 kts | 83° |
| 2026-05-06 14:29 | 23.22167 | 76.49014 | 32847 ft | 554 kts | 83° |
| 2026-05-06 14:29 | 23.22793 | 76.57371 | 32841 ft | 555 kts | 83° |
| 2026-05-06 14:30 | 23.23414 | 76.65733 | 32838 ft | 555 kts | 83° |
| 2026-05-06 14:30 | 23.24032 | 76.74098 | 32840 ft | 555 kts | 83° |
| 2026-05-06 14:31 | 23.24646 | 76.82478 | 32838 ft | 555 kts | 83° |
| 2026-05-06 14:31 | 23.25255 | 76.90862 | 32839 ft | 556 kts | 84° |
| 2026-05-06 14:32 | 23.25861 | 76.99246 | 32836 ft | 556 kts | 84° |
| 2026-05-06 14:32 | 23.26462 | 77.07640 | 32831 ft | 557 kts | 84° |
| 2026-05-06 14:33 | 23.27059 | 77.16041 | 32832 ft | 557 kts | 84° |
| 2026-05-06 14:33 | 23.27650 | 77.24409 | 32839 ft | 557 kts | 84° |
| 2026-05-06 14:34 | 23.28225 | 77.32808 | 32827 ft | 558 kts | 85° |
| 2026-05-06 14:34 | 23.28114 | 77.41255 | 32838 ft | 558 kts | 92° |
| 2026-05-06 14:35 | 23.27701 | 77.49688 | 32825 ft | 558 kts | 92° |
| 2026-05-06 14:35 | 23.27306 | 77.58117 | 32831 ft | 558 kts | 92° |
| 2026-05-06 14:36 | 23.26948 | 77.66545 | 32833 ft | 558 kts | 92° |
| 2026-05-06 14:36 | 23.26598 | 77.74984 | 32784 ft | 558 kts | 92° |
| 2026-05-06 14:37 | 23.26243 | 77.83413 | 32820 ft | 557 kts | 92° |
| 2026-05-06 14:37 | 23.25880 | 77.91836 | 32823 ft | 558 kts | 92° |
| 2026-05-06 14:38 | 23.25511 | 78.00257 | 32834 ft | 558 kts | 92° |
| 2026-05-06 14:38 | 23.25139 | 78.08653 | 32833 ft | 559 kts | 93° |
| 2026-05-06 14:39 | 23.24760 | 78.17114 | 32828 ft | 560 kts | 92° |
| 2026-05-06 14:39 | 23.24377 | 78.25571 | 32834 ft | 560 kts | 93° |
| 2026-05-06 14:40 | 23.23989 | 78.34030 | 32831 ft | 560 kts | 93° |
| 2026-05-06 14:40 | 23.23597 | 78.42488 | 32833 ft | 560 kts | 93° |
| 2026-05-06 14:41 | 23.23199 | 78.50952 | 32833 ft | 560 kts | 93° |
| 2026-05-06 14:41 | 23.22799 | 78.59395 | 32831 ft | 560 kts | 93° |
| 2026-05-06 14:42 | 23.22393 | 78.67844 | 32840 ft | 560 kts | 93° |
| 2026-05-06 14:42 | 23.21998 | 78.76297 | 32839 ft | 560 kts | 92° |
| 2026-05-06 14:43 | 23.21847 | 78.84760 | 32834 ft | 560 kts | 90° |
| 2026-05-06 14:43 | 23.21789 | 78.93234 | 32829 ft | 560 kts | 90° |
| 2026-05-06 14:44 | 23.21687 | 79.01711 | 32837 ft | 560 kts | 91° |
| 2026-05-06 14:45 | 23.21473 | 79.14413 | 32836 ft | 561 kts | 91° |
| 2026-05-06 14:45 | 23.21325 | 79.22885 | 32836 ft | 560 kts | 91° |
| 2026-05-06 14:46 | 23.21176 | 79.31298 | 32843 ft | 560 kts | 91° |
| 2026-05-06 14:46 | 23.21022 | 79.39768 | 32834 ft | 560 kts | 91° |
| 2026-05-06 14:47 | 23.20865 | 79.48238 | 32852 ft | 560 kts | 92° |
| 2026-05-06 14:47 | 23.20702 | 79.56714 | 32836 ft | 561 kts | 92° |
| 2026-05-06 14:48 | 23.20411 | 79.65183 | 32845 ft | 560 kts | 94° |
| 2026-05-06 14:48 | 23.20016 | 79.73637 | 32846 ft | 560 kts | 94° |
| 2026-05-06 14:49 | 23.19636 | 79.82111 | 32854 ft | 560 kts | 94° |
| 2026-05-06 14:49 | 23.19275 | 79.90568 | 32858 ft | 560 kts | 94° |
| 2026-05-06 14:50 | 23.18913 | 79.98980 | 32855 ft | 560 kts | 94° |
| 2026-05-06 14:50 | 23.18540 | 80.07438 | 32863 ft | 560 kts | 94° |
| 2026-05-06 14:51 | 23.18118 | 80.15897 | 32858 ft | 561 kts | 94° |
| 2026-05-06 14:51 | 23.17671 | 80.24358 | 32863 ft | 561 kts | 94° |
| 2026-05-06 14:52 | 23.17225 | 80.32836 | 32853 ft | 561 kts | 94° |
| 2026-05-06 14:52 | 23.16781 | 80.41309 | 32858 ft | 562 kts | 94° |
| 2026-05-06 14:53 | 23.16333 | 80.49794 | 32855 ft | 562 kts | 94° |
| 2026-05-06 14:53 | 23.15880 | 80.58269 | 32854 ft | 562 kts | 94° |
| 2026-05-06 14:54 | 23.15422 | 80.66740 | 32855 ft | 562 kts | 95° |
| 2026-05-06 14:54 | 23.14960 | 80.75208 | 32856 ft | 561 kts | 94° |
| 2026-05-06 14:55 | 23.14497 | 80.83665 | 32858 ft | 561 kts | 94° |
| 2026-05-06 14:55 | 23.14038 | 80.92062 | 32862 ft | 561 kts | 94° |
| 2026-05-06 14:56 | 23.13572 | 81.00518 | 32857 ft | 561 kts | 94° |
| 2026-05-06 14:56 | 23.13100 | 81.08975 | 32847 ft | 560 kts | 95° |
| 2026-05-06 14:57 | 23.12625 | 81.17419 | 32859 ft | 560 kts | 95° |
| 2026-05-06 14:57 | 23.12141 | 81.25876 | 32849 ft | 560 kts | 95° |